createdAt,value
2022-11-06T00:02:02.301Z,8.90
2022-11-06T00:09:37.820Z,8.80
2022-11-06T00:12:06.979Z,8.70
2022-11-06T00:14:35.169Z,8.60
2022-11-06T00:17:03.708Z,8.70
2022-11-06T00:19:31.199Z,8.60
2022-11-06T00:21:58.575Z,8.50
2022-11-06T00:24:26.022Z,8.40
2022-11-06T00:40:30.702Z,8.50
2022-11-06T00:42:59.546Z,8.60
2022-11-06T00:45:27.105Z,8.50
2022-11-06T00:47:54.349Z,8.60
2022-11-06T00:50:25.710Z,8.50
2022-11-06T00:52:54.013Z,8.60
2022-11-06T00:55:22.021Z,8.60
2022-11-06T01:02:44.288Z,8.40
2022-11-06T01:05:12.472Z,8.70
2022-11-06T01:07:40.453Z,8.60
2022-11-06T01:10:08.939Z,8.60
2022-11-06T01:12:38.334Z,8.60
2022-11-06T01:15:07.158Z,8.50
2022-11-06T01:17:35.631Z,8.50
2022-11-06T01:22:46.255Z,8.20
2022-11-06T01:25:14.623Z,8.10
2022-11-06T01:27:42.020Z,8.10
2022-11-06T01:30:10.258Z,8.20
2022-11-06T01:32:37.670Z,8.30
2022-11-06T01:35:06.450Z,8.30
2022-11-06T01:37:33.936Z,8.20
2022-11-06T01:40:02.389Z,8.20
2022-11-06T01:47:30.484Z,8.00
2022-11-06T01:50:00.431Z,8.10
2022-11-06T01:52:29.960Z,8.20
2022-11-06T01:55:03.498Z,8.20
2022-11-06T01:57:30.844Z,8.30
2022-11-06T01:59:58.555Z,8.20
2022-11-06T02:02:26.721Z,8.30
2022-11-06T02:10:00.620Z,8.20
2022-11-06T02:12:42.782Z,8.20
2022-11-06T02:15:30.509Z,8.10
2022-11-06T02:18:15.913Z,8.20
2022-11-06T02:20:54.639Z,8.10
2022-11-06T02:23:34.279Z,8.30
2022-11-06T02:26:23.757Z,8.30
2022-11-06T02:34:02.039Z,8.30
2022-11-06T02:36:34.857Z,8.30
2022-11-06T02:39:06.087Z,8.20
2022-11-06T02:41:37.662Z,8.10
2022-11-06T02:44:10.177Z,8.10
2022-11-06T02:46:41.204Z,8.10
2022-11-06T02:49:15.456Z,7.90
2022-11-06T02:56:08.899Z,8.00
2022-11-06T02:58:44.763Z,8.00
2022-11-06T03:01:23.428Z,8.00
2022-11-06T03:03:54.828Z,8.00
2022-11-06T03:06:29.797Z,8.00
2022-11-06T03:09:02.189Z,8.00
2022-11-06T03:18:51.999Z,8.00
2022-11-06T03:21:26.225Z,8.00
2022-11-06T03:23:58.596Z,7.90
2022-11-06T03:26:31.111Z,7.80
2022-11-06T03:29:04.197Z,7.80
2022-11-06T03:31:37.176Z,7.90
2022-11-06T03:34:11.961Z,7.90
2022-11-06T03:39:26.061Z,7.80
2022-11-06T03:41:59.883Z,7.80
2022-11-06T03:44:29.083Z,7.80
2022-11-06T03:47:01.021Z,7.90
2022-11-06T03:49:34.199Z,8.00
2022-11-06T03:52:07.292Z,8.00
2022-11-06T03:54:44.068Z,8.00
2022-11-06T04:02:20.906Z,7.80
2022-11-06T04:04:51.541Z,7.70
2022-11-06T04:07:22.738Z,7.80
2022-11-06T04:10:14.897Z,7.80
2022-11-06T04:13:01.179Z,7.70
2022-11-06T04:15:34.556Z,7.80
2022-11-06T04:18:02.900Z,7.80
2022-11-06T04:20:58.228Z,7.80
2022-11-06T04:28:33.753Z,7.90
2022-11-06T04:31:09.834Z,7.90
2022-11-06T04:33:45.967Z,7.80
2022-11-06T04:36:21.655Z,7.80
2022-11-06T04:39:00.999Z,7.90
2022-11-06T04:41:35.169Z,8.10
2022-11-06T04:44:10.317Z,8.10
2022-11-06T04:54:23.970Z,8.00
2022-11-06T04:57:17.272Z,7.80
2022-11-06T05:04:11.080Z,7.80
2022-11-06T05:07:24.891Z,7.90
2022-11-06T05:10:50.931Z,8.00
2022-11-06T05:14:10.120Z,7.70
2022-11-06T05:20:27.366Z,7.70
2022-11-06T05:23:10.399Z,7.70
2022-11-06T05:29:01.097Z,7.60
2022-11-06T05:32:00.062Z,7.70
2022-11-06T05:42:09.308Z,7.70
2022-11-06T05:44:37.180Z,8.00
2022-11-06T05:47:06.389Z,8.00
2022-11-06T05:49:34.366Z,8.00
2022-11-06T05:52:02.024Z,7.90
2022-11-06T05:54:29.816Z,7.80
2022-11-06T05:56:57.258Z,7.70
2022-11-06T06:06:55.593Z,7.50
2022-11-06T06:09:23.271Z,7.30
2022-11-06T06:11:52.919Z,7.10
2022-11-06T06:14:21.125Z,7.00
2022-11-06T06:16:48.439Z,7.30
2022-11-06T06:19:16.482Z,7.20
2022-11-06T06:21:43.809Z,7.20
2022-11-06T06:27:06.575Z,6.90
2022-11-06T06:29:34.067Z,6.80
2022-11-06T06:32:01.375Z,7.00
2022-11-06T06:34:28.968Z,7.00
2022-11-06T06:36:56.444Z,7.10
2022-11-06T06:39:24.147Z,7.20
2022-11-06T06:41:51.512Z,7.10
2022-11-06T06:44:21.105Z,6.90
2022-11-06T07:02:48.446Z,7.00
2022-11-06T07:08:29.650Z,6.60
2022-11-06T07:11:11.854Z,6.70
2022-11-06T07:13:44.882Z,6.80
2022-11-06T07:16:13.172Z,6.80
2022-11-06T07:19:08.071Z,6.80
2022-11-06T07:21:51.223Z,6.90
2022-11-06T07:24:32.953Z,6.90
2022-11-06T07:27:09.539Z,7.00
2022-11-06T07:29:41.696Z,7.10
2022-11-06T07:39:56.648Z,6.90
2022-11-06T07:42:24.684Z,7.00
2022-11-06T07:44:55.037Z,7.10
2022-11-06T07:47:23.289Z,6.70
2022-11-06T07:49:51.595Z,6.40
2022-11-06T07:52:19.414Z,6.60
2022-11-06T07:54:46.734Z,6.50
2022-11-06T07:57:15.593Z,6.50
2022-11-06T08:04:47.177Z,6.60
2022-11-06T08:07:14.845Z,6.60
2022-11-06T08:09:42.513Z,5.80
2022-11-06T08:12:14.089Z,6.00
2022-11-06T08:14:41.727Z,6.20
2022-11-06T08:17:09.469Z,6.50
2022-11-06T08:19:37.333Z,6.30
2022-11-06T08:24:47.747Z,6.60
2022-11-06T08:27:15.065Z,6.80
2022-11-06T08:29:42.676Z,6.90
2022-11-06T08:32:10.154Z,7.00
2022-11-06T08:34:37.854Z,7.20
2022-11-06T08:37:05.929Z,7.20
2022-11-06T08:39:33.182Z,7.40
2022-11-06T08:42:09.563Z,7.30
2022-11-06T08:49:43.426Z,7.20
2022-11-06T08:52:13.869Z,7.00
2022-11-06T08:54:57.032Z,7.40
2022-11-06T08:57:24.906Z,7.60
2022-11-06T08:59:55.809Z,7.80
2022-11-06T09:02:23.620Z,8.00
2022-11-06T09:04:52.442Z,8.10
2022-11-06T09:22:50.986Z,8.40
2022-11-06T09:25:20.167Z,9.10
2022-11-06T09:27:55.702Z,9.20
2022-11-06T09:30:28.664Z,9.20
2022-11-06T09:33:02.001Z,9.00
2022-11-06T09:35:30.966Z,9.20
2022-11-06T09:38:03.838Z,9.40
2022-11-06T09:45:40.686Z,9.90
2022-11-06T09:48:17.826Z,9.90
2022-11-06T09:50:52.776Z,10.10
2022-11-06T09:53:27.877Z,9.70
2022-11-06T09:55:57.776Z,10.00
2022-11-06T09:58:32.084Z,10.20
2022-11-06T10:01:06.495Z,10.30
2022-11-06T10:03:42.434Z,10.40
2022-11-06T10:11:34.666Z,10.30
2022-11-06T10:14:15.305Z,9.80
2022-11-06T10:16:50.072Z,9.50
2022-11-06T10:19:41.413Z,9.40
2022-11-06T10:22:15.164Z,10.00
2022-11-06T10:24:47.423Z,9.90
2022-11-06T10:27:18.824Z,10.10
2022-11-06T10:35:03.547Z,10.50
2022-11-06T10:37:36.614Z,10.70
2022-11-06T10:40:07.124Z,11.00
2022-11-06T10:42:39.485Z,10.90
2022-11-06T10:45:12.546Z,10.60
2022-11-06T10:47:44.195Z,10.60
2022-11-06T10:50:16.007Z,10.70
2022-11-06T10:52:54.616Z,10.70
2022-11-06T11:00:33.736Z,11.00
2022-11-06T11:03:03.405Z,11.00
2022-11-06T11:05:38.128Z,11.00
2022-11-06T11:08:06.491Z,10.90
2022-11-06T11:10:35.191Z,11.10
2022-11-06T11:13:08.415Z,11.20
2022-11-06T11:16:06.753Z,11.50
2022-11-06T11:34:21.595Z,11.80
2022-11-06T11:36:58.466Z,11.70
2022-11-06T11:39:31.175Z,11.80
2022-11-06T11:42:28.128Z,11.50
2022-11-06T11:45:15.747Z,11.10
2022-11-06T11:47:47.959Z,11.30
2022-11-06T11:57:56.799Z,10.70
2022-11-06T12:00:24.877Z,10.70
2022-11-06T12:02:58.492Z,10.90
2022-11-06T12:05:31.800Z,11.10
2022-11-06T12:08:00.530Z,10.90
2022-11-06T12:10:31.712Z,11.10
2022-11-06T12:13:02.297Z,11.20
2022-11-06T12:15:38.658Z,10.90
2022-11-06T12:23:55.086Z,11.10
2022-11-06T12:26:46.026Z,10.90
2022-11-06T12:32:54.547Z,10.10
2022-11-06T12:35:41.586Z,10.40
2022-11-06T12:38:38.239Z,10.60
2022-11-06T12:41:36.659Z,11.20
2022-11-06T12:44:15.826Z,11.60
2022-11-06T12:47:02.068Z,11.60
2022-11-06T12:50:17.476Z,11.40
2022-11-06T13:01:03.925Z,11.90
2022-11-06T13:04:09.639Z,11.70
2022-11-06T13:07:08.399Z,11.80
2022-11-06T13:09:44.256Z,11.60
2022-11-06T13:12:19.919Z,11.60
2022-11-06T13:15:05.658Z,10.90
2022-11-06T13:17:41.236Z,10.70
2022-11-06T13:20:15.599Z,10.70
2022-11-06T13:27:50.932Z,10.50
2022-11-06T13:30:21.768Z,10.10
2022-11-06T13:33:02.326Z,10.10
2022-11-06T13:35:32.218Z,9.90
2022-11-06T13:38:04.959Z,9.90
2022-11-06T13:40:36.828Z,10.00
2022-11-06T13:43:12.107Z,10.00
2022-11-06T13:45:47.670Z,10.30
2022-11-06T13:53:32.387Z,10.30
2022-11-06T13:56:10.329Z,9.80
2022-11-06T13:59:03.306Z,9.60
2022-11-06T14:01:44.084Z,9.70
2022-11-06T14:04:49.629Z,9.60
2022-11-06T14:07:21.378Z,9.70
2022-11-06T14:09:51.019Z,9.80
2022-11-06T14:17:25.848Z,10.20
2022-11-06T14:20:08.248Z,9.90
2022-11-06T14:22:37.546Z,9.90
2022-11-06T14:25:55.958Z,9.70
2022-11-06T14:28:33.235Z,9.60
2022-11-06T14:31:22.652Z,10.00
2022-11-06T14:42:15.236Z,9.50
2022-11-06T14:44:55.937Z,9.60
2022-11-06T14:47:44.490Z,9.70
2022-11-06T14:50:29.416Z,9.80
2022-11-06T14:53:00.227Z,9.70
2022-11-06T14:55:43.619Z,9.70
2022-11-06T14:58:25.339Z,9.70
2022-11-06T15:06:05.097Z,9.60
2022-11-06T15:09:21.830Z,9.60
2022-11-06T15:12:01.949Z,9.70
2022-11-06T15:15:02.998Z,9.80
2022-11-06T15:17:36.912Z,9.50
2022-11-06T15:20:27.880Z,9.60
2022-11-06T15:27:31.731Z,9.40
2022-11-06T15:34:32.261Z,8.80
2022-11-06T15:37:22.527Z,8.70
2022-11-06T15:40:35.006Z,8.80
2022-11-06T15:46:25.387Z,9.10
2022-11-06T15:53:01.660Z,8.80
2022-11-06T15:56:10.032Z,8.60
2022-11-06T15:59:11.486Z,8.90
2022-11-06T16:04:50.298Z,9.40
2022-11-06T16:07:20.417Z,9.50
2022-11-06T16:09:52.859Z,9.20
2022-11-06T16:12:23.127Z,9.20
2022-11-06T16:14:51.808Z,9.10
2022-11-06T16:17:28.897Z,9.10
2022-11-06T16:20:01.691Z,8.90
2022-11-06T16:22:34.170Z,8.80
2022-11-06T16:30:26.965Z,8.70
2022-11-06T16:32:59.930Z,8.70
2022-11-06T16:35:34.591Z,8.90
2022-11-06T16:38:40.968Z,9.10
2022-11-06T16:41:12.152Z,9.30
2022-11-06T16:43:41.983Z,9.30
2022-11-06T16:54:00.628Z,9.50
2022-11-06T16:56:31.728Z,9.70
2022-11-06T16:59:05.899Z,9.90
2022-11-06T17:01:44.398Z,9.70
2022-11-06T17:04:23.789Z,9.80
2022-11-06T17:06:53.107Z,10.00
2022-11-06T17:09:42.359Z,9.60
2022-11-06T17:12:14.785Z,9.80
2022-11-06T17:19:59.536Z,9.40
2022-11-06T17:22:36.099Z,9.70
2022-11-06T17:25:07.006Z,9.50
2022-11-06T17:27:35.391Z,9.60
2022-11-06T17:30:03.536Z,9.80
2022-11-06T17:32:32.565Z,10.00
2022-11-06T17:35:02.831Z,10.00
2022-11-06T17:40:14.143Z,9.80
2022-11-06T17:42:44.500Z,9.20
2022-11-06T17:45:12.513Z,9.40
2022-11-06T17:47:41.859Z,9.60
2022-11-06T17:50:14.551Z,9.80
2022-11-06T17:52:44.139Z,9.80
2022-11-06T17:55:15.621Z,9.90
2022-11-06T17:57:43.560Z,9.60
2022-11-06T18:03:22.783Z,9.60
2022-11-06T18:05:52.509Z,9.40
2022-11-06T18:08:39.430Z,9.10
2022-11-06T18:11:13.122Z,9.40
2022-11-06T18:13:50.531Z,8.90
2022-11-06T18:17:18.412Z,9.00
2022-11-06T18:19:56.171Z,9.10
2022-11-06T18:22:28.089Z,8.60
2022-11-06T18:24:58.285Z,8.40
2022-11-06T18:27:41.051Z,8.70
2022-11-06T18:35:13.739Z,8.70
2022-11-06T18:37:41.413Z,8.40
2022-11-06T18:40:11.169Z,8.90
2022-11-06T18:42:41.141Z,9.20
2022-11-06T18:45:10.012Z,9.50
2022-11-06T18:47:41.951Z,9.50
2022-11-06T18:50:13.389Z,9.30
2022-11-06T18:55:47.502Z,9.20
2022-11-06T18:58:20.572Z,9.00
2022-11-06T19:00:48.362Z,9.20
2022-11-06T19:03:17.377Z,9.20
2022-11-06T19:05:52.617Z,9.00
2022-11-06T19:08:25.679Z,9.00
2022-11-06T19:10:56.032Z,9.10
2022-11-06T19:13:26.091Z,9.20
2022-11-06T19:23:22.800Z,9.30
2022-11-06T19:26:04.626Z,9.30
2022-11-06T19:28:45.511Z,9.20
2022-11-06T19:31:25.482Z,9.30
2022-11-06T19:33:55.152Z,9.50
2022-11-06T19:36:25.679Z,9.50
2022-11-06T19:38:57.521Z,9.60
2022-11-06T19:47:05.783Z,9.30
2022-11-06T19:49:38.499Z,9.20
2022-11-06T19:52:43.175Z,9.50
2022-11-06T19:55:25.816Z,9.40
2022-11-06T19:57:54.832Z,9.70
2022-11-06T20:00:26.146Z,9.80
2022-11-06T20:02:57.271Z,9.70
2022-11-06T20:08:08.022Z,9.70
2022-11-06T20:10:37.611Z,9.50
2022-11-06T20:13:09.889Z,9.50
2022-11-06T20:15:42.530Z,9.30
2022-11-06T20:18:12.263Z,9.40
2022-11-06T20:20:43.169Z,9.20
2022-11-06T20:23:12.812Z,9.20
2022-11-06T20:30:53.242Z,9.30
2022-11-06T20:33:21.684Z,9.60
2022-11-06T20:35:51.092Z,9.80
2022-11-06T20:38:18.979Z,9.70
2022-11-06T20:40:49.389Z,9.70
2022-11-06T20:43:17.820Z,9.50
2022-11-06T20:45:47.280Z,9.50
2022-11-06T20:48:15.825Z,9.60
2022-11-06T20:53:42.764Z,9.20
2022-11-06T20:56:12.872Z,9.40
2022-11-06T20:58:40.579Z,9.50
2022-11-06T21:01:12.329Z,9.40
2022-11-06T21:03:41.420Z,9.50
2022-11-06T21:06:09.850Z,9.40
2022-11-06T21:08:39.591Z,9.30
2022-11-06T21:11:11.700Z,9.40
2022-11-06T21:18:45.530Z,9.70
2022-11-06T21:21:15.280Z,9.60
2022-11-06T21:23:43.201Z,9.80
2022-11-06T21:26:13.322Z,9.80
2022-11-06T21:28:44.211Z,9.80
2022-11-06T21:31:14.392Z,9.90
2022-11-06T21:33:43.321Z,9.90
2022-11-06T21:41:19.251Z,9.70
2022-11-06T21:43:49.290Z,9.90
2022-11-06T21:46:18.418Z,9.80
2022-11-06T21:48:47.960Z,9.90
2022-11-06T21:51:18.853Z,10.00
2022-11-06T21:54:04.859Z,10.00
2022-11-06T21:56:34.391Z,9.90
2022-11-06T21:59:06.669Z,9.80
2022-11-06T22:06:41.022Z,9.70
2022-11-06T22:09:08.829Z,9.80
2022-11-06T22:11:40.496Z,10.00
2022-11-06T22:14:10.733Z,10.10
2022-11-06T22:16:40.972Z,9.80
2022-11-06T22:19:09.872Z,9.70
2022-11-06T22:21:40.652Z,9.70
2022-11-06T22:24:10.899Z,9.60
2022-11-06T22:26:39.951Z,9.70
2022-11-06T22:34:25.321Z,9.70
2022-11-06T22:36:54.170Z,9.60
2022-11-06T22:39:22.328Z,9.70
2022-11-06T22:41:49.690Z,9.70
2022-11-06T22:44:18.392Z,9.70
2022-11-06T22:46:46.831Z,9.60
2022-11-06T22:49:14.270Z,9.40
2022-11-06T22:56:47.319Z,9.40
2022-11-06T22:59:15.500Z,9.60
2022-11-06T23:01:43.675Z,9.80
2022-11-06T23:04:15.036Z,9.80
2022-11-06T23:06:43.862Z,9.90
2022-11-06T23:09:11.890Z,9.70
2022-11-06T23:11:39.765Z,9.70
2022-11-06T23:14:09.373Z,9.60
2022-11-06T23:22:20.150Z,9.60
2022-11-06T23:24:49.411Z,9.50
2022-11-06T23:27:16.751Z,9.60
2022-11-06T23:29:43.950Z,9.90
2022-11-06T23:32:12.989Z,9.90
2022-11-06T23:34:40.210Z,9.80
2022-11-06T23:37:08.513Z,9.70
2022-11-06T23:39:35.831Z,9.80
2022-11-06T23:47:07.940Z,9.90
2022-11-06T23:49:35.869Z,10.10
2022-11-06T23:52:03.333Z,10.10
2022-11-06T23:54:32.122Z,10.20
2022-11-06T23:56:59.610Z,10.10
2022-11-06T23:59:26.949Z,10.30
